Time,TemperatureF,DewpointF,PressureIn,WindDirection,WindDirectionDegrees,WindSpeedMPH,WindSpeedGustMPH,Humidity,HourlyPrecipIn,Conditions,Clouds,dailyrainin,SoftwareType,DateUTC
2013-02-19 00:05:00,49.0,43.1,29.91,NNW,338,0.0,8.0,80,0.00,,,-99.99,Weather View 32 v70,2013-02-19 08:05:00,
2013-02-19 00:20:00,49.0,43.4,29.90,North,0,1.0,8.0,81,0.00,,,-99.99,Weather View 32 v70,2013-02-19 08:20:00,
2013-02-19 00:35:00,49.0,43.4,29.90,NNW,338,2.0,8.0,81,0.00,,,-99.99,Weather View 32 v70,2013-02-19 08:35:00,
2013-02-19 00:50:00,49.0,43.7,29.90,North,0,0.0,11.0,82,0.00,,,-99.99,Weather View 32 v70,2013-02-19 08:50:00,
2013-02-19 00:52:00,49.0,43.7,29.90,North,0,0.0,11.0,82,0.00,,,-99.99,Weather View 32 v70,2013-02-19 08:52:00,
2013-02-19 01:05:00,49.0,43.4,29.89,North,0,10.0,11.0,81,0.00,,,-99.99,Weather View 32 v70,2013-02-19 09:05:00,
2013-02-19 01:20:00,49.0,42.8,29.89,North,0,7.0,13.0,79,0.00,,,-99.99,Weather View 32 v70,2013-02-19 09:20:00,
2013-02-19 01:35:00,49.0,42.1,29.88,North,0,11.0,14.0,77,0.00,,,-99.99,Weather View 32 v70,2013-02-19 09:35:00,
2013-02-19 01:50:00,49.0,42.1,29.88,North,0,3.0,14.0,77,0.00,,,-99.99,Weather View 32 v70,2013-02-19 09:50:00,
2013-02-19 01:52:00,49.0,42.1,29.88,North,0,3.0,14.0,77,0.00,,,-99.99,Weather View 32 v70,2013-02-19 09:52:00,
2013-02-19 02:05:00,49.0,42.4,29.87,NNE,22,5.0,14.0,78,0.00,,,-99.99,Weather View 32 v70,2013-02-19 10:05:00,
2013-02-19 02:20:00,49.0,42.4,29.87,NNE,22,0.0,14.0,78,0.00,,,-99.99,Weather View 32 v70,2013-02-19 10:20:00,
2013-02-19 02:35:00,49.0,42.4,29.86,North,0,0.0,14.0,78,0.00,,,-99.99,Weather View 32 v70,2013-02-19 10:35:00,
2013-02-19 02:50:00,49.0,42.8,29.86,NNW,338,0.0,12.0,79,0.00,,,-99.99,Weather View 32 v70,2013-02-19 10:50:00,
2013-02-19 02:53:00,49.0,42.8,29.86,NNW,338,0.0,12.0,79,0.00,,,-99.99,Weather View 32 v70,2013-02-19 10:53:00,
2013-02-19 03:05:00,49.0,42.8,29.85,NNW,338,0.0,8.0,79,0.00,,,-99.99,Weather View 32 v70,2013-02-19 11:05:00,
2013-02-19 03:20:00,48.0,42.1,29.84,NNW,338,0.0,1.0,80,0.00,,,-99.99,Weather View 32 v70,2013-02-19 11:20:00,
2013-02-19 03:35:00,47.0,41.5,29.84,East,90,0.0,0.0,81,0.00,,,-99.99,Weather View 32 v70,2013-02-19 11:35:00,
2013-02-19 03:50:00,47.0,42.1,29.84,North,0,0.0,0.0,83,0.00,,,-99.99,Weather View 32 v70,2013-02-19 11:50:00,
2013-02-19 03:53:00,47.0,42.1,29.84,North,0,0.0,0.0,83,0.00,,,-99.99,Weather View 32 v70,2013-02-19 11:53:00,
2013-02-19 04:05:00,46.0,41.7,29.83,NNW,338,0.0,0.0,85,0.00,,,-99.99,Weather View 32 v70,2013-02-19 12:05:00,
2013-02-19 04:20:00,46.0,42.6,29.83,NE,45,0.0,0.0,88,0.00,,,-99.99,Weather View 32 v70,2013-02-19 12:20:00,
2013-02-19 04:35:00,46.0,42.9,29.83,East,90,0.0,0.0,89,0.00,,,-99.99,Weather View 32 v70,2013-02-19 12:35:00,
2013-02-19 04:50:00,49.0,46.5,29.83,NNE,22,0.0,0.0,91,0.00,,,-99.99,Weather View 32 v70,2013-02-19 12:50:00,
2013-02-19 04:54:00,49.0,46.5,29.83,NNE,22,0.0,0.0,91,0.00,,,-99.99,Weather View 32 v70,2013-02-19 12:54:00,
2013-02-19 05:05:00,49.0,46.2,29.82,NW,315,0.0,0.0,90,0.00,,,-99.99,Weather View 32 v70,2013-02-19 13:05:00,
2013-02-19 05:20:00,48.0,45.2,29.82,NNE,22,0.0,0.0,90,0.00,,,-99.99,Weather View 32 v70,2013-02-19 13:20:00,
2013-02-19 05:35:00,49.0,47.1,29.82,North,0,0.0,0.0,93,0.00,,,-99.99,Weather View 32 v70,2013-02-19 13:35:00,
2013-02-19 05:45:00,48.0,46.4,29.81,North,0,0.0,5.0,94,0.00,,,-99.99,Weather View 32 v70,2013-02-19 13:45:00,
2013-02-19 05:50:00,48.0,46.4,29.81,North,0,0.0,5.0,94,0.00,,,-99.99,Weather View 32 v70,2013-02-19 13:50:00,
2013-02-19 06:05:00,48.0,46.9,29.81,North,0,0.0,5.0,96,0.00,,,-99.99,Weather View 32 v70,2013-02-19 14:05:00,
2013-02-19 06:20:00,49.0,47.9,29.80,North,0,0.0,5.0,96,0.01,,,-99.99,Weather View 32 v70,2013-02-19 14:20:00,
2013-02-19 06:30:00,49.0,48.2,29.79,North,0,0.0,5.0,97,0.01,,,-99.99,Weather View 32 v70,2013-02-19 14:30:00,
2013-02-19 06:45:00,50.0,48.1,29.78,NNE,22,0.0,8.0,93,0.01,,,-99.99,Weather View 32 v70,2013-02-19 14:45:00,
2013-02-19 06:50:00,50.0,48.1,29.78,NNE,22,0.0,8.0,93,0.01,,,-99.99,Weather View 32 v70,2013-02-19 14:50:00,
2013-02-19 07:05:00,50.0,47.8,29.77,NNE,22,0.0,8.0,92,0.01,,,-99.99,Weather View 32 v70,2013-02-19 15:05:00,
2013-02-19 07:20:00,50.0,47.8,29.77,NNE,22,0.0,8.0,92,0.00,,,-99.99,Weather View 32 v70,2013-02-19 15:20:00,
2013-02-19 07:35:00,50.0,47.5,29.77,North,0,0.0,8.0,91,0.02,,,-99.99,Weather View 32 v70,2013-02-19 15:35:00,
2013-02-19 07:45:00,50.0,47.8,29.77,NW,315,0.0,5.0,92,0.02,,,-99.99,Weather View 32 v70,2013-02-19 15:45:00,
2013-02-19 07:50:00,50.0,47.8,29.77,NW,315,0.0,5.0,92,0.02,,,-99.99,Weather View 32 v70,2013-02-19 15:50:00,
2013-02-19 08:05:00,50.0,47.8,29.77,NNE,22,0.0,1.0,92,0.02,,,-99.99,Weather View 32 v70,2013-02-19 16:05:00,
2013-02-19 08:20:00,50.0,48.1,29.77,NNW,338,0.0,1.0,93,0.03,,,-99.99,Weather View 32 v70,2013-02-19 16:20:00,
2013-02-19 08:35:00,51.0,48.2,29.76,North,0,0.0,1.0,90,0.01,,,-99.99,Weather View 32 v70,2013-02-19 16:35:00,
2013-02-19 08:45:00,51.0,48.2,29.77,North,0,0.0,1.0,90,0.03,,,-99.99,Weather View 32 v70,2013-02-19 16:45:00,
2013-02-19 08:50:00,51.0,48.2,29.77,North,0,0.0,1.0,90,0.03,,,-99.99,Weather View 32 v70,2013-02-19 16:50:00,
2013-02-19 09:05:00,50.0,47.5,29.78,NNW,338,0.0,14.0,91,0.08,,,-99.99,Weather View 32 v70,2013-02-19 17:05:00,
2013-02-19 09:20:00,49.0,46.2,29.77,NNE,22,6.0,21.0,90,0.07,,,-99.99,Weather View 32 v70,2013-02-19 17:20:00,
2013-02-19 09:35:00,49.0,46.8,29.77,NNW,338,12.0,21.0,92,0.08,,,-99.99,Weather View 32 v70,2013-02-19 17:35:00,
2013-02-19 09:45:00,49.0,46.8,29.77,NNW,338,5.0,21.0,92,0.07,,,-99.99,Weather View 32 v70,2013-02-19 17:45:00,
2013-02-19 09:50:00,49.0,46.8,29.77,NNW,338,5.0,21.0,92,0.07,,,-99.99,Weather View 32 v70,2013-02-19 17:50:00,
2013-02-19 10:05:00,49.0,45.9,29.77,North,0,0.0,21.0,89,0.02,,,-99.99,Weather View 32 v70,2013-02-19 18:05:00,
2013-02-19 10:20:00,50.0,45.3,29.77,North,0,0.0,21.0,84,0.02,,,-99.99,Weather View 32 v70,2013-02-19 18:20:00,
2013-02-19 10:35:00,50.0,42.7,29.77,NNE,22,8.0,16.0,76,0.01,,,-99.99,Weather View 32 v70,2013-02-19 18:35:00,
2013-02-19 10:45:00,51.0,44.4,29.77,NNW,338,0.0,14.0,78,0.00,,,-99.99,Weather View 32 v70,2013-02-19 18:45:00,
2013-02-19 10:50:00,51.0,44.4,29.77,NNW,338,0.0,14.0,78,0.00,,,-99.99,Weather View 32 v70,2013-02-19 18:50:00,
2013-02-19 11:05:00,52.0,44.3,29.78,North,0,8.0,15.0,75,0.00,,,-99.99,Weather View 32 v70,2013-02-19 19:05:00,
2013-02-19 11:20:00,52.0,45.3,29.77,North,0,0.0,15.0,78,0.00,,,-99.99,Weather View 32 v70,2013-02-19 19:20:00,
2013-02-19 11:35:00,49.0,43.7,29.77,North,0,5.0,26.0,82,0.01,,,-99.99,Weather View 32 v70,2013-02-19 19:35:00,
2013-02-19 11:45:00,49.0,44.7,29.77,NNE,22,0.0,26.0,85,0.01,,,-99.99,Weather View 32 v70,2013-02-19 19:45:00,
2013-02-19 11:50:00,49.0,44.7,29.77,NNE,22,0.0,26.0,85,0.01,,,-99.99,Weather View 32 v70,2013-02-19 19:50:00,
2013-02-19 12:05:00,50.0,44.4,29.76,NW,315,1.0,26.0,81,0.01,,,-99.99,Weather View 32 v70,2013-02-19 20:05:00,
2013-02-19 12:20:00,50.0,43.1,29.76,North,0,5.0,26.0,77,0.01,,,-99.99,Weather View 32 v70,2013-02-19 20:20:00,
2013-02-19 12:35:00,50.0,42.4,29.75,NNW,338,6.0,18.0,75,0.00,,,-99.99,Weather View 32 v70,2013-02-19 20:35:00,
2013-02-19 12:45:00,50.0,42.7,29.75,NNW,338,5.0,18.0,76,0.00,,,-99.99,Weather View 32 v70,2013-02-19 20:45:00,
2013-02-19 12:50:00,50.0,42.7,29.75,NNW,338,5.0,18.0,76,0.00,,,-99.99,Weather View 32 v70,2013-02-19 20:50:00,
2013-02-19 13:05:00,51.0,42.6,29.74,North,0,10.0,18.0,73,0.00,,,-99.99,Weather View 32 v70,2013-02-19 21:05:00,
2013-02-19 13:20:00,51.0,41.2,29.74,NNW,338,5.0,20.0,69,0.00,,,-99.99,Weather View 32 v70,2013-02-19 21:20:00,
2013-02-19 13:35:00,52.0,39.8,29.74,North,0,0.0,20.0,63,0.00,,,-99.99,Weather View 32 v70,2013-02-19 21:35:00,
2013-02-19 13:45:00,52.0,39.4,29.74,North,0,0.0,20.0,62,0.00,,,-99.99,Weather View 32 v70,2013-02-19 21:45:00,
2013-02-19 13:50:00,52.0,39.4,29.74,North,0,0.0,20.0,62,0.00,,,-99.99,Weather View 32 v70,2013-02-19 21:50:00,
2013-02-19 14:05:00,53.0,38.6,29.73,North,0,7.0,20.0,58,0.00,,,-99.99,Weather View 32 v70,2013-02-19 22:05:00,
2013-02-19 14:20:00,53.0,38.6,29.73,NNW,338,19.0,24.0,58,0.00,,,-99.99,Weather View 32 v70,2013-02-19 22:20:00,
2013-02-19 14:35:00,53.0,39.0,29.73,NNE,22,6.0,27.0,59,0.00,,,-99.99,Weather View 32 v70,2013-02-19 22:35:00,
2013-02-19 14:45:00,53.0,35.8,29.73,North,0,13.0,27.0,52,0.00,,,-99.99,Weather View 32 v70,2013-02-19 22:45:00,
2013-02-19 14:50:00,53.0,35.8,29.73,North,0,13.0,27.0,52,0.00,,,-99.99,Weather View 32 v70,2013-02-19 22:50:00,
2013-02-19 15:05:00,53.0,36.8,29.74,NNE,22,12.0,27.0,54,0.00,,,-99.99,Weather View 32 v70,2013-02-19 23:05:00,
2013-02-19 15:20:00,53.0,36.8,29.74,NNE,22,6.0,27.0,54,0.00,,,-99.99,Weather View 32 v70,2013-02-19 23:20:00,
2013-02-19 15:35:00,52.0,38.9,29.74,North,0,10.0,23.0,61,0.00,,,-99.99,Weather View 32 v70,2013-02-19 23:35:00,
2013-02-19 15:45:00,54.0,40.0,29.74,North,0,6.0,21.0,59,0.00,,,-99.99,Weather View 32 v70,2013-02-19 23:45:00,
2013-02-19 15:50:00,54.0,40.0,29.74,North,0,6.0,21.0,59,0.00,,,-99.99,Weather View 32 v70,2013-02-19 23:50:00,
2013-02-19 16:05:00,53.0,38.6,29.74,NNW,338,5.0,21.0,58,0.00,,,-99.99,Weather View 32 v70,2013-02-20 00:05:00,
2013-02-19 16:20:00,53.0,39.0,29.75,NNE,22,8.0,21.0,59,0.00,,,-99.99,Weather View 32 v70,2013-02-20 00:20:00,
2013-02-19 16:35:00,51.0,38.8,29.75,North,0,3.0,20.0,63,0.00,,,-99.99,Weather View 32 v70,2013-02-20 00:35:00,
2013-02-19 16:45:00,52.0,40.6,29.76,North,0,5.0,20.0,65,0.00,,,-99.99,Weather View 32 v70,2013-02-20 00:45:00,
2013-02-19 16:50:00,52.0,40.6,29.76,North,0,5.0,20.0,65,0.00,,,-99.99,Weather View 32 v70,2013-02-20 00:50:00,
2013-02-19 17:05:00,51.0,41.2,29.75,North,0,2.0,18.0,69,0.00,,,-99.99,Weather View 32 v70,2013-02-20 01:05:00,
2013-02-19 17:20:00,50.0,40.2,29.75,North,0,5.0,16.0,69,0.00,,,-99.99,Weather View 32 v70,2013-02-20 01:20:00,
2013-02-19 17:35:00,49.0,39.3,29.75,North,0,0.0,16.0,69,0.00,,,-99.99,Weather View 32 v70,2013-02-20 01:35:00,
2013-02-19 17:45:00,49.0,38.9,29.76,North,0,7.0,16.0,68,0.00,,,-99.99,Weather View 32 v70,2013-02-20 01:45:00,
2013-02-19 17:50:00,49.0,38.9,29.76,North,0,7.0,16.0,68,0.00,,,-99.99,Weather View 32 v70,2013-02-20 01:50:00,
2013-02-19 18:05:00,48.0,37.5,29.76,North,0,3.0,16.0,67,0.00,,,-99.99,Weather View 32 v70,2013-02-20 02:05:00,
2013-02-19 18:20:00,48.0,38.7,29.76,North,0,5.0,14.0,70,0.00,,,-99.99,Weather View 32 v70,2013-02-20 02:20:00,
2013-02-19 18:35:00,47.0,38.8,29.75,North,0,8.0,14.0,73,0.00,,,-99.99,Weather View 32 v70,2013-02-20 02:35:00,
2013-02-19 18:45:00,47.0,39.5,29.76,NNE,22,0.0,14.0,75,0.00,,,-99.99,Weather View 32 v70,2013-02-20 02:45:00,
2013-02-19 18:50:00,47.0,39.5,29.76,NNE,22,0.0,14.0,75,0.00,,,-99.99,Weather View 32 v70,2013-02-20 02:50:00,
2013-02-19 19:05:00,46.0,39.5,29.76,NNE,22,0.0,14.0,78,0.00,,,-99.99,Weather View 32 v70,2013-02-20 03:05:00,
2013-02-19 19:20:00,45.0,39.2,29.76,North,0,0.0,13.0,80,0.00,,,-99.99,Weather View 32 v70,2013-02-20 03:20:00,
2013-02-19 19:35:00,45.0,39.2,29.77,NNE,22,0.0,10.0,80,0.00,,,-99.99,Weather View 32 v70,2013-02-20 03:35:00,
2013-02-19 19:45:00,45.0,39.5,29.76,NNE,22,0.0,6.0,81,0.00,,,-99.99,Weather View 32 v70,2013-02-20 03:45:00,
2013-02-19 19:50:00,45.0,39.5,29.76,NNE,22,0.0,6.0,81,0.00,,,-99.99,Weather View 32 v70,2013-02-20 03:50:00,
2013-02-19 20:05:00,45.0,38.9,29.76,North,0,0.0,6.0,79,0.00,,,-99.99,Weather View 32 v70,2013-02-20 04:05:00,
2013-02-19 20:20:00,45.0,38.9,29.76,North,0,0.0,6.0,79,0.00,,,-99.99,Weather View 32 v70,2013-02-20 04:20:00,
2013-02-19 20:35:00,45.0,38.5,29.76,NNE,22,0.0,6.0,78,0.00,,,-99.99,Weather View 32 v70,2013-02-20 04:35:00,
2013-02-19 20:45:00,43.0,37.9,29.76,North,0,0.0,6.0,82,0.00,,,-99.99,Weather View 32 v70,2013-02-20 04:45:00,
2013-02-19 20:50:00,43.0,37.9,29.76,North,0,0.0,6.0,82,0.00,,,-99.99,Weather View 32 v70,2013-02-20 04:50:00,
2013-02-19 21:05:00,43.0,37.9,29.77,NNE,22,0.0,6.0,82,0.00,,,-99.99,Weather View 32 v70,2013-02-20 05:05:00,
2013-02-19 21:20:00,43.0,38.2,29.76,North,0,0.0,6.0,83,0.00,,,-99.99,Weather View 32 v70,2013-02-20 05:20:00,
2013-02-19 21:35:00,43.0,38.2,29.76,NNE,22,0.0,0.0,83,0.00,,,-99.99,Weather View 32 v70,2013-02-20 05:35:00,
2013-02-19 21:45:00,43.0,38.2,29.76,NNE,22,0.0,1.0,83,0.00,,,-99.99,Weather View 32 v70,2013-02-20 05:45:00,
2013-02-19 21:50:00,43.0,38.2,29.76,NNE,22,0.0,1.0,83,0.00,,,-99.99,Weather View 32 v70,2013-02-20 05:50:00,
2013-02-19 22:05:00,44.0,38.2,29.76,North,0,0.0,8.0,80,0.00,,,-99.99,Weather View 32 v70,2013-02-20 06:05:00,
2013-02-19 22:20:00,44.0,37.9,29.75,NNW,338,0.0,9.0,79,0.00,,,-99.99,Weather View 32 v70,2013-02-20 06:20:00,
2013-02-19 22:35:00,44.0,38.2,29.76,NNE,22,0.0,11.0,80,0.00,,,-99.99,Weather View 32 v70,2013-02-20 06:35:00,
2013-02-19 22:45:00,42.0,37.2,29.76,NNE,22,0.0,11.0,83,0.00,,,-99.99,Weather View 32 v70,2013-02-20 06:45:00,
2013-02-19 22:50:00,42.0,37.2,29.76,NNE,22,0.0,11.0,83,0.00,,,-99.99,Weather View 32 v70,2013-02-20 06:50:00,
2013-02-19 23:05:00,42.0,38.1,29.76,NNE,22,0.0,11.0,86,0.00,,,-99.99,Weather View 32 v70,2013-02-20 07:05:00,
2013-02-19 23:20:00,42.0,37.8,29.77,NNE,22,0.0,11.0,85,0.00,,,-99.99,Weather View 32 v70,2013-02-20 07:20:00,
2013-02-19 23:35:00,42.0,38.1,29.77,NNE,22,0.0,6.0,86,0.00,,,-99.99,Weather View 32 v70,2013-02-20 07:35:00,
2013-02-19 23:45:00,41.0,37.1,29.77,NNE,22,0.0,6.0,86,0.00,,,-99.99,Weather View 32 v70,2013-02-20 07:45:00,
2013-02-19 23:50:00,41.0,37.1,29.77,NNE,22,0.0,6.0,86,0.00,,,-99.99,Weather View 32 v70,2013-02-20 07:50:00,